Time;durP1;ratioP1;P1;durP2;ratioP2;P2;SDS_P1;SDS_P2;PMS_P1;PMS_P2;Temp;Humidity;BMP_temperature;BMP_pressure;BME280_temperature;BME280_humidity;BME280_pressure;Samples;Min_cycle;Max_cycle;Signal;HPM_P1;HPM_P2
2022/04/16 00:00:47;;;;;;;;;15.25;15.00;;;;;17.41;48.17;102226.44;5057785;28;45390;-66
2022/04/16 00:03:13;;;;;;;;;14.25;12.00;;;;;17.39;48.04;102225.56;5057911;28;45420;-66
2022/04/16 00:05:39;;;;;;;;;15.75;15.75;;;;;17.39;48.07;102217.47;5053062;28;45523;-66
2022/04/16 00:08:07;;;;;;;;;12.50;11.25;;;;;17.48;48.03;102237.88;5059053;28;45472;-66
2022/04/16 00:10:37;;;;;;;;;18.00;13.50;;;;;17.29;48.33;102198.09;5062282;28;45581;-66
2022/04/16 00:13:04;;;;;;;;;10.75;9.25;;;;;17.30;48.03;102202.53;5061871;28;45323;-66
2022/04/16 00:15:30;;;;;;;;;12.00;12.00;;;;;17.44;48.36;102237.13;5064228;28;45536;-66
2022/04/16 00:17:55;;;;;;;;;16.75;15.75;;;;;17.37;48.42;102228.38;5061921;28;45388;-66
2022/04/16 00:20:25;;;;;;;;;19.50;16.25;;;;;17.31;48.29;102211.53;5062135;28;45471;-65
2022/04/16 00:22:51;;;;;;;;;19.50;17.00;;;;;17.40;48.48;102228.22;5057372;28;45461;-66
2022/04/16 00:25:20;;;;;;;;;15.25;14.00;;;;;17.35;48.35;102234.75;5059761;28;45532;-65
2022/04/16 00:27:47;;;;;;;;;12.25;12.25;;;;;17.19;48.59;102207.44;5061552;27;46216;-66
2022/04/16 00:30:13;;;;;;;;;16.00;14.25;;;;;17.19;48.45;102210.13;5062140;28;45383;-66
2022/04/16 00:32:40;;;;;;;;;19.00;18.00;;;;;17.27;48.40;102229.63;5061624;28;45483;-66
2022/04/16 00:35:07;;;;;;;;;14.50;13.50;;;;;17.25;48.43;102226.09;5061330;28;45402;-66
2022/04/16 00:37:33;;;;;;;;;15.50;13.25;;;;;17.17;48.86;102221.00;5061467;28;46466;-66
2022/04/16 00:39:59;;;;;;;;;14.25;13.50;;;;;16.98;48.80;102188.41;5061939;28;45431;-66
2022/04/16 00:42:24;;;;;;;;;12.75;12.75;;;;;17.13;49.08;102205.84;5068974;28;45433;-66
2022/04/16 00:44:49;;;;;;;;;16.50;15.25;;;;;17.21;48.96;102219.94;5058415;28;45465;-66
2022/04/16 00:47:15;;;;;;;;;16.00;15.00;;;;;17.22;49.13;102212.72;5053292;28;46451;-65
2022/04/16 00:49:40;;;;;;;;;17.75;17.25;;;;;17.31;49.35;102220.50;5061604;28;45263;-66
2022/04/16 00:52:08;;;;;;;;;15.50;14.50;;;;;17.07;49.21;102176.38;5062079;28;45283;-66
2022/04/16 00:54:34;;;;;;;;;16.25;15.75;;;;;17.26;49.32;102202.69;5053662;28;45462;-66
2022/04/16 00:56:59;;;;;;;;;16.50;15.75;;;;;17.25;49.16;102204.50;5066410;28;47336;-66
2022/04/16 00:59:25;;;;;;;;;17.50;16.50;;;;;17.35;49.20;102221.25;5060415;28;45166;-65
2022/04/16 01:01:51;;;;;;;;;17.50;15.75;;;;;17.32;49.48;102218.66;5061675;28;45520;-66
2022/04/16 01:04:16;;;;;;;;;18.50;15.75;;;;;17.18;49.34;102187.66;5062625;28;45522;-66
2022/04/16 01:06:46;;;;;;;;;14.50;14.50;;;;;17.29;49.20;102202.56;5061400;28;45448;-65
2022/04/16 01:09:11;;;;;;;;;13.50;12.75;;;;;17.32;49.66;102211.44;5061327;28;45523;-66
2022/04/16 01:11:36;;;;;;;;;21.50;16.50;;;;;17.30;49.45;102210.63;5093147;27;45238;-66
2022/04/16 01:14:02;;;;;;;;;15.50;13.25;;;;;17.26;49.69;102200.00;5061192;28;45213;-66
2022/04/16 01:16:29;;;;;;;;;17.25;15.75;;;;;17.37;49.65;102216.66;5068775;28;47651;-66
2022/04/16 01:18:55;;;;;;;;;17.00;16.00;;;;;17.34;49.68;102214.06;5061007;28;45254;-66
2022/04/16 01:21:21;;;;;;;;;15.50;15.50;;;;;17.31;49.67;102208.81;5073511;28;45388;-66
2022/04/16 01:23:46;;;;;;;;;18.25;16.25;;;;;17.26;49.51;102210.78;5075867;28;45539;-66
2022/04/16 01:26:12;;;;;;;;;18.25;16.25;;;;;17.33;49.63;102215.03;5060877;28;46147;-66
2022/04/16 01:28:38;;;;;;;;;14.75;13.25;;;;;17.33;49.45;102218.59;5061102;28;45377;-65
2022/04/16 01:31:03;;;;;;;;;21.25;19.00;;;;;17.08;49.65;102180.00;5061145;28;45449;-66
2022/04/16 01:33:30;;;;;;;;;17.75;16.75;;;;;17.22;49.71;102208.22;5059049;28;45685;-66
2022/04/16 01:35:56;;;;;;;;;19.00;15.25;;;;;17.08;50.01;102175.47;5052416;28;45394;-65
2022/04/16 01:38:25;;;;;;;;;16.25;16.00;;;;;17.24;49.87;102197.38;5060329;28;45552;-65
2022/04/16 01:40:53;;;;;;;;;16.25;16.25;;;;;17.33;50.03;102215.91;5061075;28;45403;-66
2022/04/16 01:43:18;;;;;;;;;17.00;17.00;;;;;17.35;49.96;102211.31;5060148;28;45483;-65
2022/04/16 01:45:43;;;;;;;;;14.50;14.50;;;;;17.23;49.93;102193.78;5060899;28;46554;-65
2022/04/16 01:48:09;;;;;;;;;16.25;15.25;;;;;17.30;49.71;102201.66;5060453;28;45360;-66
2022/04/16 01:50:34;;;;;;;;;18.50;16.75;;;;;17.34;50.23;102224.88;5061183;28;45286;-65
2022/04/16 01:52:59;;;;;;;;;18.50;18.50;;;;;17.09;49.85;102173.63;5084099;27;45548;-66
2022/04/16 01:55:25;;;;;;;;;20.50;19.75;;;;;17.10;50.03;102189.78;5065727;28;46981;-66
2022/04/16 01:57:51;;;;;;;;;19.50;17.50;;;;;17.18;50.01;102205.69;5046737;28;45374;-66
2022/04/16 02:00:16;;;;;;;;;18.75;16.75;;;;;17.22;50.20;102220.81;5061014;28;45370;-66
2022/04/16 02:02:42;;;;;;;;;16.00;16.00;;;;;17.12;50.10;102214.88;5059305;28;45484;-66
2022/04/16 02:05:09;;;;;;;;;20.00;20.00;;;;;17.11;50.13;102221.22;5072937;28;46721;-66
2022/04/16 02:07:35;;;;;;;;;21.25;18.75;;;;;17.12;50.36;102224.78;5053204;28;45236;-66
2022/04/16 02:10:01;;;;;;;;;17.75;16.00;;;;;16.94;50.17;102199.34;5051771;28;45627;-66
2022/04/16 02:12:27;;;;;;;;;20.75;19.00;;;;;16.97;50.41;102213.63;5070932;28;45725;-66
2022/04/16 02:14:52;;;;;;;;;21.50;19.75;;;;;16.95;50.56;102210.09;5069826;28;47106;-65
2022/04/16 02:17:17;;;;;;;;;19.50;18.50;;;;;17.00;50.84;102213.50;5059972;28;45481;-66
2022/04/16 02:19:43;;;;;;;;;22.50;19.00;;;;;16.92;50.58;102210.19;5060376;28;45395;-66
2022/04/16 02:22:10;;;;;;;;;17.00;17.00;;;;;16.91;50.89;102207.59;5054850;28;45517;-66
2022/04/16 02:24:36;;;;;;;;;22.75;19.75;;;;;16.96;50.60;102214.56;5051860;28;46296;-66
2022/04/16 02:27:02;;;;;;;;;25.50;21.75;;;;;16.98;50.59;102228.00;5059839;28;45323;-66
2022/04/16 02:29:27;;;;;;;;;22.50;20.25;;;;;16.90;50.74;102227.38;5060393;28;45189;-66
2022/04/16 02:31:53;;;;;;;;;25.75;22.25;;;;;16.86;50.78;102232.00;5058437;28;45581;-66
2022/04/16 02:34:19;;;;;;;;;24.50;21.25;;;;;16.79;50.85;102219.63;5071940;28;48183;-65
2022/04/16 02:36:44;;;;;;;;;22.75;21.75;;;;;16.66;50.88;102208.41;5057365;28;45407;-65
2022/04/16 02:39:10;;;;;;;;;22.00;19.75;;;;;16.60;50.85;102208.59;5060274;28;45419;-65
2022/04/16 02:41:35;;;;;;;;;27.50;26.50;;;;;16.71;51.00;102227.13;5059751;28;45878;-66
2022/04/16 02:44:01;;;;;;;;;27.00;24.75;;;;;16.61;51.45;102219.34;5059206;28;45470;-66
2022/04/16 02:49:13;;;;;;;;;24.25;24.00;;;;;16.59;51.06;102223.91;5059984;28;45463;-66
2022/04/16 02:51:39;;;;;;;;;25.00;24.00;;;;;16.56;51.26;102221.31;5070821;28;45529;-65
2022/04/16 02:54:05;;;;;;;;;25.25;22.50;;;;;16.55;51.42;102218.66;5058893;28;46155;-66
2022/04/16 02:56:31;;;;;;;;;21.25;20.00;;;;;16.57;51.31;102232.97;5052005;28;45350;-66
2022/04/16 02:58:56;;;;;;;;;21.25;20.00;;;;;16.58;51.44;102229.34;5053077;28;45340;-65
2022/04/16 03:01:22;;;;;;;;;25.75;23.75;;;;;16.58;51.43;102224.81;5059590;28;46099;-66
2022/04/16 03:03:47;;;;;;;;;17.75;16.25;;;;;16.43;51.30;102212.75;5057674;28;48017;-65
2022/04/16 03:06:12;;;;;;;;;25.00;22.00;;;;;16.36;51.61;102208.50;5071818;28;45365;-66
2022/04/16 03:08:38;;;;;;;;;24.75;22.00;;;;;16.24;51.54;102188.25;5052114;28;45299;-66
2022/04/16 03:11:06;;;;;;;;;23.25;20.50;;;;;16.13;51.38;102170.66;5051471;28;45374;-65
2022/04/16 03:13:34;;;;;;;;;20.50;18.50;;;;;16.32;51.65;102216.72;5049721;28;46221;-65
2022/04/16 03:18:47;;;;;;;;;20.50;19.25;;;;;16.25;51.92;102224.13;5059560;28;45261;-65
2022/04/16 03:21:16;;;;;;;;;22.00;21.00;;;;;16.16;51.88;102206.47;5071651;28;45555;-65
2022/04/16 03:23:41;;;;;;;;;26.75;25.00;;;;;16.23;52.00;102221.50;5056237;28;45413;-66
2022/04/16 03:26:07;;;;;;;;;25.75;24.75;;;;;16.27;51.42;102223.16;5059206;28;45271;-66
2022/04/16 03:28:33;;;;;;;;;24.75;23.00;;;;;16.09;51.51;102205.78;5059366;28;45369;-65
2022/04/16 03:30:59;;;;;;;;;22.75;22.00;;;;;16.10;51.79;102206.66;5059249;28;45356;-66
2022/04/16 03:33:24;;;;;;;;;26.25;21.75;;;;;16.21;51.87;102219.78;5055675;28;48521;-66
2022/04/16 03:35:51;;;;;;;;;29.50;26.00;;;;;16.15;51.77;102215.47;5062648;28;45308;-65
2022/04/16 03:38:17;;;;;;;;;29.50;26.00;;;;;16.14;51.97;102219.13;5057358;28;45451;-65
2022/04/16 03:40:43;;;;;;;;;24.75;22.75;;;;;15.93;52.01;102188.34;5071566;28;45594;-66
2022/04/16 03:43:08;;;;;;;;;25.00;24.25;;;;;16.00;51.88;102206.06;5057261;28;45970;-65
2022/04/16 03:45:35;;;;;;;;;25.25;23.75;;;;;16.04;52.18;102212.25;5062660;28;45427;-65
2022/04/16 03:48:03;;;;;;;;;24.50;24.25;;;;;15.97;52.16;102210.66;5062621;28;45472;-65
2022/04/16 03:50:30;;;;;;;;;26.00;22.50;;;;;15.99;51.99;102219.56;5062769;28;45391;-65
2022/04/16 03:52:56;;;;;;;;;26.75;22.50;;;;;15.82;52.21;102188.69;5052243;28;46394;-65
2022/04/16 04:00:57;;;;;;;;;26.25;24.50;;;;;15.76;52.15;102177.25;5059136;28;45401;-66
2022/04/16 04:03:23;;;;;;;;;11.00;9.00;;;;;15.88;52.15;102214.53;5054705;28;48128;-65
2022/04/16 04:05:49;;;;;;;;;22.75;22.25;;;;;15.84;52.40;102215.59;5061088;28;45316;-65
2022/04/16 04:08:16;;;;;;;;;26.75;24.25;;;;;15.81;52.67;102202.22;5060926;28;45495;-66
2022/04/16 04:10:42;;;;;;;;;28.00;23.25;;;;;15.85;52.36;102210.13;5061703;28;45324;-65
2022/04/16 04:13:08;;;;;;;;;25.00;23.50;;;;;15.67;52.10;102191.81;5056936;28;46590;-65
2022/04/16 04:15:34;;;;;;;;;29.50;25.50;;;;;15.80;52.10;102221.97;5065285;28;45307;-66
2022/04/16 04:18:00;;;;;;;;;30.00;26.00;;;;;15.68;52.05;102215.13;5062093;28;45358;-66
2022/04/16 04:20:26;;;;;;;;;27.25;24.75;;;;;15.59;52.17;102216.28;5062029;28;45242;-65
2022/04/16 04:22:52;;;;;;;;;26.25;23.00;;;;;15.43;52.34;102204.22;5060483;28;46314;-66
2022/04/16 04:25:17;;;;;;;;;26.50;25.50;;;;;15.38;52.51;102197.16;5057189;28;45310;-66
2022/04/16 04:27:43;;;;;;;;;26.00;24.25;;;;;15.52;52.47;102220.97;5061817;28;45815;-65
2022/04/16 04:30:09;;;;;;;;;27.50;25.00;;;;;15.61;52.56;102227.00;5076723;27;45322;-65
2022/04/16 04:32:36;;;;;;;;;28.00;27.00;;;;;15.52;52.82;102215.59;5053077;28;48193;-65
2022/04/16 04:35:02;;;;;;;;;22.25;22.25;;;;;15.65;52.48;102236.75;5061815;28;45467;-65
2022/04/16 04:37:27;;;;;;;;;22.00;21.00;;;;;15.56;52.30;102222.63;5069004;28;45374;-66
2022/04/16 04:39:52;;;;;;;;;30.00;25.25;;;;;15.40;52.14;102210.53;5060788;28;45379;-66
2022/04/16 04:42:30;;;;;;;;;23.50;23.50;;;;;15.59;52.32;102242.31;5061210;28;45472;-66
2022/04/16 04:44:56;;;;;;;;;26.25;23.50;;;;;15.35;52.11;102208.00;5055482;28;45636;-65
2022/04/16 04:47:22;;;;;;;;;25.00;23.75;;;;;15.45;51.86;102227.47;5061507;28;45530;-65
2022/04/16 04:49:48;;;;;;;;;21.75;19.25;;;;;15.29;52.40;102210.88;5061971;28;45947;-65
2022/04/16 04:52:26;;;;;;;;;24.00;23.50;;;;;15.36;52.19;102219.66;5060796;28;45830;-65
2022/04/16 04:54:56;;;;;;;;;27.50;27.50;;;;;15.37;52.02;102227.69;5061102;28;45379;-65
2022/04/16 04:57:21;;;;;;;;;30.25;30.00;;;;;15.21;51.96;102209.34;5048332;28;45555;-66
2022/04/16 04:59:47;;;;;;;;;25.75;24.25;;;;;15.30;52.03;102235.97;5061796;28;45547;-66
2022/04/16 05:02:12;;;;;;;;;20.25;20.25;;;;;15.03;52.25;102191.91;5065742;28;47082;-66
2022/04/16 05:04:38;;;;;;;;;21.00;21.00;;;;;15.16;52.12;102215.72;5048287;28;45343;-66
2022/04/16 05:07:05;;;;;;;;;28.50;24.25;;;;;15.27;52.43;102244.09;5061396;28;45508;-66
2022/04/16 05:09:31;;;;;;;;;25.00;25.00;;;;;15.25;52.43;102240.59;5074080;28;45655;-65
2022/04/16 05:11:57;;;;;;;;;26.50;26.25;;;;;15.04;52.18;102208.00;5060593;28;45413;-66
2022/04/16 05:14:23;;;;;;;;;27.50;24.25;;;;;15.12;52.33;102235.56;5057474;28;45332;-66
2022/04/16 05:16:48;;;;;;;;;25.50;24.75;;;;;15.15;52.05;102238.16;5055259;28;45264;-65
2022/04/16 05:19:14;;;;;;;;;33.75;29.50;;;;;15.05;52.21;102233.06;5061135;28;45486;-65
2022/04/16 05:21:40;;;;;;;;;28.50;27.00;;;;;15.14;52.29;102252.53;5054510;28;46847;-65
2022/04/16 05:24:06;;;;;;;;;27.50;25.75;;;;;15.10;52.13;102247.28;5072804;28;45459;-65
2022/04/16 05:26:32;;;;;;;;;30.75;28.25;;;;;15.15;52.37;102259.69;5061048;28;45403;-66
2022/04/16 05:28:58;;;;;;;;;31.75;29.25;;;;;15.17;51.67;102262.34;5061267;28;45309;-65
2022/04/16 05:31:26;;;;;;;;;30.25;29.75;;;;;15.12;52.28;102264.28;5075671;28;47172;-65
2022/04/16 05:36:36;;;;;;;;;29.00;25.25;;;;;14.87;52.18;102227.28;5060791;28;45337;-65
2022/04/16 05:39:01;;;;;;;;;25.00;25.00;;;;;15.01;52.55;102256.47;5059615;28;45564;-66
2022/04/16 05:41:27;;;;;;;;;27.75;24.50;;;;;14.95;52.30;102268.28;5061689;28;47031;-66
2022/04/16 05:43:53;;;;;;;;;35.00;31.00;;;;;14.93;52.23;102277.31;5054479;28;45141;-65
2022/04/16 05:46:18;;;;;;;;;28.25;28.25;;;;;14.79;52.49;102269.59;5060697;28;45307;-65
2022/04/16 05:48:44;;;;;;;;;32.50;31.25;;;;;14.62;52.54;102254.78;5060621;28;45473;-65
2022/04/16 05:51:10;;;;;;;;;30.25;28.50;;;;;14.67;52.69;102267.22;5058548;28;47101;-66
2022/04/16 05:53:36;;;;;;;;;32.25;30.00;;;;;14.79;52.56;102293.81;5060574;28;45588;-65
2022/04/16 05:56:02;;;;;;;;;29.25;29.25;;;;;14.63;52.79;102275.38;5057969;28;45540;-65
2022/04/16 05:58:28;;;;;;;;;31.00;28.50;;;;;14.67;52.81;102283.34;5049903;28;45573;-66
2022/04/16 06:00:54;;;;;;;;;36.25;31.25;;;;;14.68;52.86;102299.44;5060249;28;45374;-65
2022/04/16 06:03:20;;;;;;;;;29.75;28.50;;;;;14.61;53.44;102290.63;5059627;28;45444;-65
2022/04/16 06:05:46;;;;;;;;;40.25;34.00;;;;;14.56;53.02;102281.78;5059777;28;45346;-65
2022/04/16 06:08:11;;;;;;;;;35.25;31.00;;;;;14.56;53.04;102286.28;5060219;28;45457;-66
2022/04/16 06:10:37;;;;;;;;;34.00;31.00;;;;;14.68;53.16;102294.06;5076014;28;48438;-65
2022/04/16 06:13:04;;;;;;;;;37.25;30.50;;;;;14.73;53.07;102302.00;5075299;28;45395;-65
2022/04/16 06:15:30;;;;;;;;;33.50;31.00;;;;;14.77;53.42;102309.97;5049851;28;45462;-65
2022/04/16 06:17:55;;;;;;;;;32.50;31.50;;;;;14.75;53.17;102298.38;5060294;28;45350;-65
2022/04/16 06:20:21;;;;;;;;;32.75;28.75;;;;;14.70;53.14;102288.66;5060381;28;46579;-65
2022/04/16 06:22:46;;;;;;;;;32.75;30.75;;;;;14.66;52.94;102295.91;5056245;28;45299;-65
2022/04/16 06:25:12;;;;;;;;;35.50;32.25;;;;;14.69;52.96;102306.59;5058128;28;45407;-65
2022/04/16 06:27:38;;;;;;;;;29.75;27.00;;;;;14.50;53.16;102294.47;5059845;28;45538;-66
2022/04/16 06:30:05;;;;;;;;;34.25;29.50;;;;;14.40;53.14;102281.28;5060236;28;46591;-65
2022/04/16 06:32:31;;;;;;;;;32.50;30.25;;;;;14.59;53.63;102318.47;5059112;28;45504;-65
2022/04/16 06:34:57;;;;;;;;;40.25;34.25;;;;;14.54;53.30;102315.00;5050323;28;45573;-68
2022/04/16 06:37:22;;;;;;;;;35.50;33.00;;;;;14.53;53.48;102316.78;5063042;28;45307;-67
2022/04/16 06:39:48;;;;;;;;;29.25;27.75;;;;;14.51;53.74;102298.94;5055384;28;47126;-68
2022/04/16 06:42:13;;;;;;;;;30.00;30.00;;;;;14.37;53.99;102297.47;5057678;28;45368;-66
2022/04/16 06:44:38;;;;;;;;;29.75;29.00;;;;;14.44;53.73;102309.81;5058648;28;45406;-64
2022/04/16 06:47:04;;;;;;;;;37.00;34.25;;;;;14.44;53.52;102303.56;5050687;28;45576;-65
2022/04/16 06:49:29;;;;;;;;;33.75;31.50;;;;;14.50;53.74;102319.56;5063987;28;47262;-65
2022/04/16 06:51:55;;;;;;;;;39.00;33.50;;;;;14.08;53.78;102257.84;5059436;28;45308;-66
2022/04/16 06:54:20;;;;;;;;;30.25;29.50;;;;;14.40;54.18;102302.78;5086163;27;45356;-74
2022/04/16 06:57:06;;;;;;;;;33.75;32.00;;;;;14.53;53.99;102315.91;5055839;28;45474;-75
2022/04/16 06:59:39;;;;;;;;;37.50;34.25;;;;;14.42;53.89;102294.69;5049041;28;47492;-71
2022/04/16 07:02:06;;;;;;;;;39.25;35.50;;;;;14.25;53.67;102276.28;5043183;28;45388;-74
2022/04/16 07:04:32;;;;;;;;;40.75;34.50;;;;;14.24;53.76;102271.81;5058576;28;45430;-71
2022/04/16 07:06:57;;;;;;;;;39.25;35.00;;;;;14.51;53.88;102315.94;5057161;28;45547;-75
2022/04/16 07:09:23;;;;;;;;;32.00;30.75;;;;;14.49;54.16;102320.47;5058164;28;45517;-74
2022/04/16 07:11:48;;;;;;;;;33.50;32.25;;;;;14.45;54.03;102314.28;5056670;28;45378;-75
2022/04/16 07:14:14;;;;;;;;;36.75;28.25;;;;;14.46;53.85;102313.34;5071644;27;45369;-72
2022/04/16 07:16:39;;;;;;;;;41.00;34.00;;;;;14.05;53.89;102258.81;5056583;28;45619;-75
2022/04/16 07:19:05;;;;;;;;;43.25;35.75;;;;;14.23;54.01;102275.41;5051207;28;45473;-74
2022/04/16 07:21:30;;;;;;;;;34.50;32.25;;;;;14.43;54.25;102307.16;5058069;28;45512;-68
2022/04/16 07:23:55;;;;;;;;;44.50;36.75;;;;;14.37;53.91;102285.84;5057787;28;45399;-66
2022/04/16 07:26:21;;;;;;;;;33.50;31.50;;;;;14.45;53.93;102299.97;5054083;28;45510;-67
2022/04/16 07:28:46;;;;;;;;;32.00;31.50;;;;;14.55;54.29;102306.91;5055940;28;46235;-68
2022/04/16 07:31:12;;;;;;;;;34.75;32.75;;;;;14.50;53.89;102297.16;5058860;28;45347;-67
2022/04/16 07:33:37;;;;;;;;;30.75;29.75;;;;;14.43;54.23;102274.94;5056803;28;45384;-68
2022/04/16 07:36:03;;;;;;;;;33.25;31.75;;;;;14.43;54.10;102270.47;5040504;28;45216;-66
2022/04/16 07:38:28;;;;;;;;;37.25;32.75;;;;;14.55;53.80;102289.88;5055474;28;45279;-70
2022/04/16 07:40:54;;;;;;;;;41.00;33.00;;;;;14.69;53.71;102319.16;5051220;28;45579;-75
2022/04/16 07:43:20;;;;;;;;;33.00;32.25;;;;;14.44;53.95;102277.59;5049567;28;45465;-75
2022/04/16 07:45:45;;;;;;;;;33.25;31.25;;;;;14.70;53.90;102300.28;5046134;28;45441;-67
2022/04/16 07:48:10;;;;;;;;;32.00;31.00;;;;;14.72;53.80;102305.63;5049167;28;46840;-67
2022/04/16 07:50:36;;;;;;;;;33.75;32.00;;;;;14.64;53.70;102292.38;5056155;28;45385;-67
2022/04/16 07:53:02;;;;;;;;;29.50;28.50;;;;;14.72;53.49;102298.44;5054801;28;45858;-66
2022/04/16 07:55:31;;;;;;;;;31.50;30.75;;;;;14.67;53.31;102289.63;5052608;28;45413;-67
2022/04/16 07:57:57;;;;;;;;;32.25;31.00;;;;;14.91;53.10;102327.56;5060273;27;46199;-67
2022/04/16 08:00:23;;;;;;;;;31.00;30.75;;;;;14.76;53.28;102292.06;5058957;28;45520;-67
2022/04/16 08:02:48;;;;;;;;;36.25;31.00;;;;;14.87;53.18;102305.25;5058428;28;45354;-67
2022/04/16 08:05:14;;;;;;;;;24.75;22.25;;;;;15.08;53.18;102319.91;5058204;28;45451;-68
2022/04/16 08:07:39;;;;;;;;;35.00;31.00;;;;;15.06;52.88;102313.72;5054037;28;48403;-67
2022/04/16 08:10:14;;;;;;;;;30.50;29.00;;;;;15.03;53.25;102303.03;5058943;28;45220;-71
2022/04/16 08:12:40;;;;;;;;;35.50;32.75;;;;;15.11;53.03;102319.84;5057390;28;45309;-68
2022/04/16 08:15:06;;;;;;;;;41.25;33.75;;;;;15.00;53.20;102292.34;5044156;28;45521;-69
2022/04/16 08:17:32;;;;;;;;;35.50;28.00;;;;;15.06;52.98;102285.94;5049735;28;46280;-79
2022/04/16 08:20:00;;;;;;;;;33.75;31.25;;;;;15.21;52.55;102306.16;5048563;28;45407;-84
2022/04/16 08:22:28;;;;;;;;;35.50;32.00;;;;;14.97;52.78;102261.06;5052768;28;45686;-81
2022/04/16 08:27:46;;;;;;;;;35.50;31.50;;;;;15.14;52.70;102281.25;5049917;28;45597;-77
2022/04/16 08:33:25;;;;;;;;;34.50;33.00;;;;;15.51;52.43;102337.59;5038122;28;45514;-74
2022/04/16 08:36:09;;;;;;;;;33.75;30.00;;;;;15.52;52.45;102328.63;5047464;28;45690;-78
2022/04/16 08:38:40;;;;;;;;;39.00;33.00;;;;;15.45;52.29;102320.75;5061698;28;46591;-67
2022/04/16 08:41:13;;;;;;;;;32.75;31.75;;;;;15.61;52.69;102346.31;5056909;28;45699;-69
2022/04/16 08:44:25;;;;;;;;;32.00;29.50;;;;;15.65;52.72;102350.69;5050072;28;45274;-67
2022/04/16 08:46:52;;;;;;;;;30.25;28.50;;;;;15.58;52.42;102338.31;5001741;28;45356;-67
2022/04/16 08:49:19;;;;;;;;;34.25;32.00;;;;;15.49;52.25;102315.25;5061106;28;46753;-67
2022/04/16 08:51:46;;;;;;;;;32.00;30.25;;;;;15.55;51.83;102328.53;5060973;28;45449;-67
2022/04/16 08:54:12;;;;;;;;;37.25;30.00;;;;;15.70;52.03;102345.16;5063313;28;45414;-67
2022/04/16 08:56:39;;;;;;;;;30.75;29.00;;;;;15.73;52.21;102340.56;5060104;28;45398;-67
2022/04/16 08:59:05;;;;;;;;;34.25;32.25;;;;;15.80;52.38;102352.06;5059964;28;47890;-67
2022/04/16 09:01:32;;;;;;;;;32.00;30.00;;;;;15.86;52.24;102354.59;5059794;28;45390;-67
2022/04/16 09:03:59;;;;;;;;;27.00;26.00;;;;;15.93;52.34;102348.09;5060589;28;45184;-67
2022/04/16 09:06:25;;;;;;;;;29.00;27.25;;;;;15.96;52.39;102341.75;5052235;28;45877;-67
2022/04/16 09:08:51;;;;;;;;;32.25;30.00;;;;;15.91;52.14;102314.09;5058398;28;45509;-67
2022/04/16 09:11:22;;;;;;;;;31.00;27.75;;;;;16.06;51.76;102340.56;5059861;28;45665;-67
2022/04/16 09:13:51;;;;;;;;;31.75;29.25;;;;;16.18;51.82;102350.06;5060392;28;45165;-67
2022/04/16 09:16:17;;;;;;;;;33.00;29.75;;;;;16.01;52.17;102315.56;5053450;28;45467;-67
2022/04/16 09:18:50;;;;;;;;;27.75;25.75;;;;;16.20;51.75;102341.94;5048459;28;46551;-67
2022/04/16 09:21:16;;;;;;;;;27.75;26.00;;;;;16.24;51.71;102346.34;5059904;28;45180;-67
2022/04/16 09:23:50;;;;;;;;;31.00;28.00;;;;;16.27;51.73;102347.13;5060424;28;45381;-67
2022/04/16 09:26:26;;;;;;;;;31.25;30.25;;;;;16.32;52.09;102335.28;5058533;28;45278;-67
2022/04/16 09:28:51;;;;;;;;;31.25;28.75;;;;;16.17;51.49;102294.44;5059552;28;47923;-67
2022/04/16 09:31:17;;;;;;;;;26.50;25.00;;;;;16.21;51.44;102306.00;5058654;28;46146;-67
2022/04/16 09:33:44;;;;;;;;;23.50;22.00;;;;;16.26;51.20;102302.22;5060975;28;45507;-67
2022/04/16 09:36:12;;;;;;;;;26.75;26.00;;;;;16.42;51.77;102320.59;5060759;28;45465;-67
2022/04/16 09:38:38;;;;;;;;;24.75;24.00;;;;;16.30;51.01;102297.63;5060731;28;45501;-67
2022/04/16 09:41:05;;;;;;;;;24.00;23.25;;;;;16.52;51.16;102322.06;5059015;28;45548;-67
2022/04/16 09:43:41;;;;;;;;;27.75;27.00;;;;;16.64;51.33;102320.81;5059148;28;45496;-67
2022/04/16 09:46:12;;;;;;;;;27.50;24.50;;;;;16.46;50.85;102293.50;5047465;28;45472;-68
2022/04/16 09:48:45;;;;;;;;;31.50;30.00;;;;;16.71;50.82;102316.09;5060488;28;46263;-66
2022/04/16 09:51:43;;;;;;;;;28.50;27.00;;;;;16.75;51.19;102323.13;5055350;28;45374;-68
2022/04/16 09:54:10;;;;;;;;;29.00;28.50;;;;;16.70;50.44;102301.72;5046065;28;45363;-69
2022/04/16 09:56:50;;;;;;;;;;;;;;;;;;;;;
2022/04/16 09:59:16;;;;;;;;;23.25;21.25;;;;;16.71;50.49;102287.31;5042885;28;73708;-83
2022/04/16 10:01:51;;;;;;;;;22.50;22.25;;;;;16.97;50.77;102315.22;5057417;28;45441;-82
2022/04/16 10:04:28;;;;;;;;;25.00;22.75;;;;;17.03;49.86;102312.34;5049956;28;45451;-80
2022/04/16 10:07:07;;;;;;;;;20.50;19.00;;;;;17.07;49.62;102318.50;5064413;28;45554;-78
2022/04/16 10:09:41;;;;;;;;;19.50;17.00;;;;;16.98;49.46;102290.03;5059374;28;45576;-68
2022/04/16 10:14:49;;;;;;;;;19.25;19.25;;;;;17.22;48.64;102317.97;5060300;28;45549;-69
2022/04/16 10:17:22;;;;;;;;;19.50;19.00;;;;;17.22;48.46;102317.97;5057350;28;45561;-69
2022/04/16 10:19:48;;;;;;;;;15.50;13.00;;;;;17.13;48.13;102302.09;5060165;28;46262;-69
2022/04/16 10:22:24;;;;;;;;;21.00;19.75;;;;;17.10;48.07;102294.13;5051823;28;45488;-68
2022/04/16 10:24:53;;;;;;;;;24.25;22.75;;;;;17.31;48.44;102317.66;5054643;28;45358;-68
2022/04/16 10:27:26;;;;;;;;;20.50;20.25;;;;;17.27;48.50;102299.78;5065799;28;45563;-74
2022/04/16 10:29:54;;;;;;;;;26.00;24.00;;;;;17.16;48.58;102269.63;5049789;28;45539;-74
2022/04/16 10:32:19;;;;;;;;;22.00;21.00;;;;;17.32;48.26;102280.72;5058471;28;45522;-74
2022/04/16 10:34:46;;;;;;;;;21.25;19.50;;;;;17.52;48.39;102294.38;5062888;28;45560;-74
2022/04/16 10:37:25;;;;;;;;;24.00;22.25;;;;;17.32;47.93;102249.22;5051409;28;46114;-70
2022/04/16 10:39:54;;;;;;;;;11.25;11.00;;;;;17.47;47.55;102272.06;5040699;28;45774;-70
2022/04/16 10:42:32;;;;;;;;;17.50;16.50;;;;;17.53;47.06;102290.75;5066720;28;46150;-70
2022/04/16 10:45:29;;;;;;;;;17.50;16.25;;;;;17.53;47.07;102288.03;5064059;28;45938;-70
2022/04/16 10:51:24;;;;;;;;;19.75;17.75;;;;;17.53;46.51;102282.66;5030731;28;45745;-69
2022/04/16 10:54:30;;;;;;;;;14.50;14.50;;;;;17.67;45.79;102310.97;5050675;28;45716;-71
2022/04/16 10:57:01;;;;;;;;;16.00;16.00;;;;;17.70;46.07;102311.72;5052893;28;45525;-70
2022/04/16 11:00:01;;;;;;;;;;;;;;;;;;;;;
2022/04/16 11:02:28;;;;;;;;;12.75;12.00;;;;;17.77;45.46;102299.75;5053918;28;74138;-73
2022/04/16 11:05:07;;;;;;;;;22.50;18.00;;;;;17.62;45.30;102280.53;5046226;28;45720;-73
2022/04/16 11:07:48;;;;;;;;;;;;;;;;;;;;;
2022/04/16 11:10:16;;;;;;;;;17.75;17.25;;;;;17.67;45.46;102262.34;5054118;28;71097;-73
2022/04/16 11:13:13;;;;;;;;;14.50;13.75;;;;;17.83;45.72;102276.16;5070705;28;47281;-73
2022/04/16 11:15:40;;;;;;;;;17.50;17.50;;;;;17.83;46.05;102276.16;5044994;28;46030;-67
2022/04/16 11:18:06;;;;;;;;;17.75;17.75;;;;;17.99;45.32;102290.84;5042142;28;46251;-66
2022/04/16 11:20:31;;;;;;;;;18.50;16.50;;;;;18.08;45.97;102287.78;5055402;28;45524;-67
2022/04/16 11:22:59;;;;;;;;;22.75;21.75;;;;;18.11;46.13;102284.97;5056239;28;45850;-67
2022/04/16 11:25:25;;;;;;;;;18.25;17.00;;;;;18.08;45.25;102271.59;5052523;28;45808;-67
2022/04/16 11:36:11;;;;;;;;;19.25;17.00;;;;;18.16;45.06;102268.59;5041710;28;45548;-66
2022/04/16 11:38:39;;;;;;;;;16.50;16.25;;;;;18.32;45.17;102295.84;5053974;28;45472;-67
2022/04/16 11:41:10;;;;;;;;;21.25;16.00;;;;;18.29;44.96;102285.16;5046363;28;45474;-67
2022/04/16 11:43:39;;;;;;;;;15.75;15.00;;;;;18.45;44.51;102316.06;5057965;28;45986;-66
2022/04/16 11:46:12;;;;;;;;;17.25;17.25;;;;;18.48;44.09;102309.66;5059095;28;45499;-67
2022/04/16 11:48:43;;;;;;;;;12.50;12.00;;;;;18.49;44.32;102311.41;5059199;28;45350;-67
2022/04/16 11:51:11;;;;;;;;;15.50;13.25;;;;;18.44;44.26;102292.69;5057031;28;45459;-66